My Meet Scores
Emma D'Orazio, Gymnastics X-Calibur - MyMeetScores.com
Top100 | Top Teams | Upcoming Meets | Completed Meets | Latest | Add Scores | Help| Support | Bookmark and Share

Emma D'Orazio, Gymnastics X-Calibur
Personal Bests
LevelVault BarsBeamFloorAA
XG9.4259.550 9.4259.67537.750
XS9.42510.000 9.7009.60038.225
Scores on America's Top 100as of 07.24.2021
Year Level Vault Bars Beam Floor AA
2020 XS10.000

Click here to view our exclusive Top 100 Collection
Meet Scores
Date Meet Team Session Level Division Vault Bars Beam Floor AA
2021-03-18 Level 5 & Xcel Gold State Gymnastics X-Calibur 4 XG Ch B 9.425 3T 9.225 11 9.425 6 9.675 2 37.750 3
2021-02-26 Kinetic Classic 2021 Gymnastics X-Calibur 02 XG Younger 8.750 10T 9.250 10T 8.650 15 9.550 6 36.200 9
2021-02-11 SCGA Classic 2021 Gymnastics X-Calibur 1 XG Jr A 9.200 1 9.325 1 7.875 6 9.500 2 35.900 2
2021-02-11 SCGA Classic 2021 Gymnastics X-Calibur 0 XG Jr A 0.000 4*
2021-02-11 SCGA Classic 2021 Gymnastics X-Calibur XG XG Jr A 0.000 4*
2021-01-21 King Arthur Invitational Gymnastics X-Calibur 17 XG CH 9.275 4 9.400 4 9.050 8 9.575 2T 37.300 3
2021-01-14 2021 Bravo Classic Gymnastics X-Calibur 6 XG Jr 9.200 6 8.350 13 8.300 12 9.400 2T 35.250 11
2020-12-04 Wish Classic Gymnastics X-Calibur 1 XG CH 9.100 5 9.550 1 9.150 3 9.350 3 37.150 2
2020-02-21 Kinetic Classic Gymnastics X-Calibur 09 XS Younger 9.425 4T 10.000 3T 9.400 24T 9.400 17 38.225 9
2020-01-31 LEgacy Elite Classic Gymnastics X-Calibur 4 XS Ch A 9.200 4 9.450 4 9.650 1 9.525 4 37.825 4
2020-01-24 King Arthur Invitational Gymnastics X-Calibur 7B XS JR A 9.275 2T 9.475 5 9.500 5 9.600 1 37.850 1
2020-01-10 Leenda's Island Adventure Gymnastics X-Calibur GG2 XS 9 & Under 9.000 7 9.225 8 9.100 11 9.100 9 36.425 7
2019-12-07 Home for the Holidays 2019 Gymnastics X-Calibur 1 XS Younger 9.075 6 9.400 4 9.450 1T 9.500 3 37.425 1
2019-11-08 Illinois Judges Cup Gymnastics X-Calibur P5 XS All Ages 9.100 12* 9.550 15T 9.250 31T 9.250 20T 37.150 13T
2019-05-03 2019 Region 5 Xcel Championships Gymnastics X-Calibur 10D XS CH B 9.025 37 9.250 32 9.575 9T 9.300 8T 37.150 17
2019-04-13 2019 Illinois XB, XS State Championships Gymnastics X-Calibur 3 XS Ch B 9.275 16T 9.700 11 9.700 4T 9.400 7T 38.075 8
2019-02-22 Gasparilla Classic Gymnastics X-Calibur C4 XS XS c4 gp1 9.050 4 9.200 8 9.400 3 9.125 4 36.775 5T
2019-02-08 Midwest Twisters Harley Meet Womens Gymnastics X-Calibur S10 XS 8 un 8.750 2T 9.100 4 9.575 1 9.350 1 36.775 1
2019-01-25 King Arthur Invitational Gymnastics X-Calibur 16 XS JR A 9.100 3 9.300 14 9.225 3 9.200 9 36.825 3
2019-01-04 Leenda's Island Adventure Gymnastics X-Calibur P06 XS 8 and Unde 9.000 1T 9.525 6 9.500 1 8.800 6T 36.825 3
2018-11-30 Ultimate Wish Classic Gymnastics X-Calibur 7 XS JR 8.875 15 9.025 18 9.400 10 9.150 8 36.450 15
Get your scores on
a t-shirt, pin, or hoodie